sensor_id;sensor_type;location;lat;lon;timestamp;pressure;altitude;pressure_sealevel;temperature;humidity
4858;BME280;58975;51.978;8.472;2022-08-21T00:02:03;100459.00;;;13.49;100.00
4858;BME280;58975;51.978;8.472;2022-08-21T00:07:00;100451.28;;;13.46;100.00
4858;BME280;58975;51.978;8.472;2022-08-21T00:11:56;100449.88;;;13.42;100.00
4858;BME280;58975;51.978;8.472;2022-08-21T00:16:52;100442.81;;;13.41;100.00
4858;BME280;58975;51.978;8.472;2022-08-21T00:21:56;100443.09;;;13.38;100.00
4858;BME280;58975;51.978;8.472;2022-08-21T00:26:53;100436.19;;;13.26;100.00
4858;BME280;58975;51.978;8.472;2022-08-21T00:31:49;100440.81;;;13.05;100.00
4858;BME280;58975;51.978;8.472;2022-08-21T00:36:46;100443.31;;;13.06;100.00
4858;BME280;58975;51.978;8.472;2022-08-21T00:41:42;100454.59;;;13.10;100.00
4858;BME280;58975;51.978;8.472;2022-08-21T00:46:40;100462.09;;;13.25;100.00
4858;BME280;58975;51.978;8.472;2022-08-21T00:51:42;100463.06;;;13.15;100.00
4858;BME280;58975;51.978;8.472;2022-08-21T00:56:39;100463.66;;;13.28;100.00
4858;BME280;58975;51.978;8.472;2022-08-21T01:01:38;100460.69;;;13.31;100.00
4858;BME280;58975;51.978;8.472;2022-08-21T01:06:35;100467.91;;;13.40;100.00
4858;BME280;58975;51.978;8.472;2022-08-21T01:11:31;100460.28;;;13.26;100.00
4858;BME280;58975;51.978;8.472;2022-08-21T01:16:28;100463.50;;;13.30;100.00
4858;BME280;58975;51.978;8.472;2022-08-21T01:21:26;100464.50;;;13.38;100.00
4858;BME280;58975;51.978;8.472;2022-08-21T01:26:27;100456.75;;;13.35;100.00
4858;BME280;58975;51.978;8.472;2022-08-21T01:31:30;100455.50;;;13.39;100.00
4858;BME280;58975;51.978;8.472;2022-08-21T01:36:27;100454.38;;;13.32;100.00
4858;BME280;58975;51.978;8.472;2022-08-21T01:41:24;100459.28;;;13.27;100.00
4858;BME280;58975;51.978;8.472;2022-08-21T01:46:20;100451.13;;;13.19;100.00
4858;BME280;58975;51.978;8.472;2022-08-21T01:51:17;100444.00;;;12.99;100.00
4858;BME280;58975;51.978;8.472;2022-08-21T01:56:15;100448.94;;;12.94;100.00
4858;BME280;58975;51.978;8.472;2022-08-21T02:01:12;100442.47;;;13.06;100.00
4858;BME280;58975;51.978;8.472;2022-08-21T02:06:13;100451.47;;;12.95;100.00
4858;BME280;58975;51.978;8.472;2022-08-21T02:11:11;100449.06;;;13.02;100.00
4858;BME280;58975;51.978;8.472;2022-08-21T02:16:07;100449.28;;;13.19;100.00
4858;BME280;58975;51.978;8.472;2022-08-21T02:21:05;100447.47;;;13.49;100.00
4858;BME280;58975;51.978;8.472;2022-08-21T02:26:04;100447.59;;;13.38;100.00
4858;BME280;58975;51.978;8.472;2022-08-21T02:31:03;100446.75;;;13.37;100.00
4858;BME280;58975;51.978;8.472;2022-08-21T02:36:01;100436.63;;;13.50;100.00
4858;BME280;58975;51.978;8.472;2022-08-21T02:40:58;100437.22;;;13.44;100.00
4858;BME280;58975;51.978;8.472;2022-08-21T02:45:56;100440.88;;;13.43;100.00
4858;BME280;58975;51.978;8.472;2022-08-21T02:51:03;100433.13;;;13.40;100.00
4858;BME280;58975;51.978;8.472;2022-08-21T02:56:02;100436.91;;;13.38;100.00
4858;BME280;58975;51.978;8.472;2022-08-21T03:01:00;100428.47;;;13.42;100.00
4858;BME280;58975;51.978;8.472;2022-08-21T03:05:56;100431.56;;;13.47;100.00
4858;BME280;58975;51.978;8.472;2022-08-21T03:10:53;100418.63;;;13.52;100.00
4858;BME280;58975;51.978;8.472;2022-08-21T03:15:50;100432.97;;;13.51;100.00
4858;BME280;58975;51.978;8.472;2022-08-21T03:20:47;100436.38;;;13.44;100.00
4858;BME280;58975;51.978;8.472;2022-08-21T03:25:44;100430.44;;;13.59;100.00
4858;BME280;58975;51.978;8.472;2022-08-21T03:30:43;100429.88;;;13.65;100.00
4858;BME280;58975;51.978;8.472;2022-08-21T03:35:41;100435.06;;;13.77;100.00
4858;BME280;58975;51.978;8.472;2022-08-21T03:40:38;100430.41;;;13.79;100.00
4858;BME280;58975;51.978;8.472;2022-08-21T03:45:35;100434.34;;;13.84;100.00
4858;BME280;58975;51.978;8.472;2022-08-21T03:50:35;100424.47;;;13.85;100.00
4858;BME280;58975;51.978;8.472;2022-08-21T03:55:36;100440.53;;;13.85;100.00
4858;BME280;58975;51.978;8.472;2022-08-21T04:00:34;100444.91;;;13.86;100.00
4858;BME280;58975;51.978;8.472;2022-08-21T04:05:31;100452.66;;;13.89;100.00
4858;BME280;58975;51.978;8.472;2022-08-21T04:10:29;100456.47;;;13.86;100.00
4858;BME280;58975;51.978;8.472;2022-08-21T04:15:26;100457.63;;;13.84;100.00
4858;BME280;58975;51.978;8.472;2022-08-21T04:20:23;100454.34;;;13.80;100.00
4858;BME280;58975;51.978;8.472;2022-08-21T04:25:21;100448.31;;;13.68;100.00
4858;BME280;58975;51.978;8.472;2022-08-21T04:30:19;100454.66;;;13.48;100.00
4858;BME280;58975;51.978;8.472;2022-08-21T04:35:18;100459.00;;;13.49;100.00
4858;BME280;58975;51.978;8.472;2022-08-21T04:40:17;100466.63;;;13.44;100.00
4858;BME280;58975;51.978;8.472;2022-08-21T04:45:52;100462.84;;;13.56;100.00
4858;BME280;58975;51.978;8.472;2022-08-21T04:51:03;100467.03;;;13.49;100.00
4858;BME280;58975;51.978;8.472;2022-08-21T04:56:06;100472.13;;;13.52;100.00
4858;BME280;58975;51.978;8.472;2022-08-21T05:01:08;100460.28;;;13.36;100.00
4858;BME280;58975;51.978;8.472;2022-08-21T05:06:07;100477.44;;;13.33;100.00
4858;BME280;58975;51.978;8.472;2022-08-21T05:11:06;100475.50;;;13.35;100.00
4858;BME280;58975;51.978;8.472;2022-08-21T05:16:03;100477.91;;;13.48;100.00
4858;BME280;58975;51.978;8.472;2022-08-21T05:20:59;100474.94;;;13.51;100.00
4858;BME280;58975;51.978;8.472;2022-08-21T05:25:56;100474.22;;;13.58;100.00
4858;BME280;58975;51.978;8.472;2022-08-21T05:30:52;100468.72;;;13.69;100.00
4858;BME280;58975;51.978;8.472;2022-08-21T05:35:51;100474.22;;;13.87;100.00
4858;BME280;58975;51.978;8.472;2022-08-21T05:40:48;100484.13;;;14.33;100.00
4858;BME280;58975;51.978;8.472;2022-08-21T05:45:45;100485.38;;;14.48;100.00
4858;BME280;58975;51.978;8.472;2022-08-21T05:50:42;100486.28;;;14.66;100.00
4858;BME280;58975;51.978;8.472;2022-08-21T05:55:40;100476.00;;;14.99;100.00
4858;BME280;58975;51.978;8.472;2022-08-21T06:00:42;100459.09;;;15.16;100.00
4858;BME280;58975;51.978;8.472;2022-08-21T06:05:39;100444.25;;;15.57;100.00
4858;BME280;58975;51.978;8.472;2022-08-21T06:10:35;100420.47;;;15.80;100.00
4858;BME280;58975;51.978;8.472;2022-08-21T06:15:32;100405.81;;;16.00;100.00
4858;BME280;58975;51.978;8.472;2022-08-21T06:20:29;100396.41;;;16.22;100.00
4858;BME280;58975;51.978;8.472;2022-08-21T06:25:25;100390.78;;;16.41;100.00
4858;BME280;58975;51.978;8.472;2022-08-21T06:30:22;100388.41;;;16.72;100.00
4858;BME280;58975;51.978;8.472;2022-08-21T06:35:18;100392.53;;;17.00;100.00
4858;BME280;58975;51.978;8.472;2022-08-21T06:40:15;100388.22;;;17.39;100.00
4858;BME280;58975;51.978;8.472;2022-08-21T06:45:13;100391.59;;;17.58;100.00
4858;BME280;58975;51.978;8.472;2022-08-21T06:50:10;100397.69;;;17.76;100.00
4858;BME280;58975;51.978;8.472;2022-08-21T06:55:09;100393.06;;;18.09;100.00
4858;BME280;58975;51.978;8.472;2022-08-21T07:00:07;100395.09;;;18.15;100.00
4858;BME280;58975;51.978;8.472;2022-08-21T07:05:05;100401.44;;;18.38;100.00
4858;BME280;58975;51.978;8.472;2022-08-21T07:10:14;100397.06;;;18.76;100.00
4858;BME280;58975;51.978;8.472;2022-08-21T07:15:18;100393.06;;;18.72;100.00
4858;BME280;58975;51.978;8.472;2022-08-21T07:20:14;100396.59;;;19.03;100.00
4858;BME280;58975;51.978;8.472;2022-08-21T07:25:11;100408.56;;;19.31;100.00
4858;BME280;58975;51.978;8.472;2022-08-21T07:30:08;100395.97;;;19.47;100.00
4858;BME280;58975;51.978;8.472;2022-08-21T07:35:05;100400.03;;;19.65;100.00
4858;BME280;58975;51.978;8.472;2022-08-21T07:40:01;100404.78;;;20.01;100.00
4858;BME280;58975;51.978;8.472;2022-08-21T07:44:58;100412.97;;;20.30;100.00
4858;BME280;58975;51.978;8.472;2022-08-21T07:49:55;100414.28;;;20.49;100.00
4858;BME280;58975;51.978;8.472;2022-08-21T07:54:51;100415.28;;;20.77;100.00
4858;BME280;58975;51.978;8.472;2022-08-21T07:59:48;100412.88;;;20.53;100.00
4858;BME280;58975;51.978;8.472;2022-08-21T08:04:45;100420.22;;;20.59;100.00
4858;BME280;58975;51.978;8.472;2022-08-21T08:09:46;100405.78;;;20.52;100.00
4858;BME280;58975;51.978;8.472;2022-08-21T08:14:42;100418.03;;;20.98;100.00
4858;BME280;58975;51.978;8.472;2022-08-21T08:19:39;100418.13;;;21.41;100.00
4858;BME280;58975;51.978;8.472;2022-08-21T08:24:38;100418.25;;;21.54;100.00
4858;BME280;58975;51.978;8.472;2022-08-21T08:29:34;100421.88;;;21.40;100.00
4858;BME280;58975;51.978;8.472;2022-08-21T08:34:31;100422.97;;;21.45;100.00
4858;BME280;58975;51.978;8.472;2022-08-21T08:39:29;100410.16;;;21.33;100.00
4858;BME280;58975;51.978;8.472;2022-08-21T08:44:26;100405.09;;;21.51;100.00
4858;BME280;58975;51.978;8.472;2022-08-21T08:49:35;100402.66;;;21.35;100.00
4858;BME280;58975;51.978;8.472;2022-08-21T08:54:43;100395.91;;;22.22;100.00
4858;BME280;58975;51.978;8.472;2022-08-21T08:59:44;100391.06;;;22.11;100.00
4858;BME280;58975;51.978;8.472;2022-08-21T09:04:45;100386.56;;;22.66;100.00
4858;BME280;58975;51.978;8.472;2022-08-21T09:15:36;100396.84;;;21.59;100.00
4858;BME280;58975;51.978;8.472;2022-08-21T09:20:43;100390.66;;;21.44;100.00
4858;BME280;58975;51.978;8.472;2022-08-21T09:26:20;100390.00;;;21.63;100.00
4858;BME280;58975;51.978;8.472;2022-08-21T09:36:33;100387.44;;;22.04;100.00
4858;BME280;58975;51.978;8.472;2022-08-21T09:41:34;100381.59;;;21.79;100.00
4858;BME280;58975;51.978;8.472;2022-08-21T09:46:32;100380.16;;;22.73;100.00
4858;BME280;58975;51.978;8.472;2022-08-21T09:51:30;100383.09;;;21.88;100.00
4858;BME280;58975;51.978;8.472;2022-08-21T09:56:31;100382.50;;;21.65;100.00
4858;BME280;58975;51.978;8.472;2022-08-21T10:01:50;100366.41;;;22.47;100.00
4858;BME280;58975;51.978;8.472;2022-08-21T10:06:48;100369.44;;;23.26;100.00
4858;BME280;58975;51.978;8.472;2022-08-21T10:11:53;100365.88;;;23.19;100.00
4858;BME280;58975;51.978;8.472;2022-08-21T10:17:05;100354.06;;;22.38;100.00
4858;BME280;58975;51.978;8.472;2022-08-21T10:22:19;100357.78;;;23.45;100.00
4858;BME280;58975;51.978;8.472;2022-08-21T10:27:37;100349.00;;;23.43;95.18
4858;BME280;58975;51.978;8.472;2022-08-21T10:32:47;100350.66;;;22.29;100.00
4858;BME280;58975;51.978;8.472;2022-08-21T10:44:10;100346.66;;;22.19;100.00
4858;BME280;58975;51.978;8.472;2022-08-21T10:49:23;100348.19;;;22.75;99.69
4858;BME280;58975;51.978;8.472;2022-08-21T10:54:35;100332.69;;;23.49;84.14
4858;BME280;58975;51.978;8.472;2022-08-21T10:59:42;100322.00;;;23.28;80.28
4858;BME280;58975;51.978;8.472;2022-08-21T11:04:48;100328.09;;;23.50;93.21
4858;BME280;58975;51.978;8.472;2022-08-21T11:09:47;100326.22;;;23.57;90.07
4858;BME280;58975;51.978;8.472;2022-08-21T11:14:51;100335.09;;;22.92;91.11
4858;BME280;58975;51.978;8.472;2022-08-21T11:20:02;100323.75;;;22.75;84.29
4858;BME280;58975;51.978;8.472;2022-08-21T11:30:00;100316.78;;;23.40;85.70
4858;BME280;58975;51.978;8.472;2022-08-21T11:40:34;100313.59;;;23.03;80.15
4858;BME280;58975;51.978;8.472;2022-08-21T11:45:54;100327.84;;;23.12;82.55
4858;BME280;58975;51.978;8.472;2022-08-21T11:50:51;100328.22;;;24.27;75.20
4858;BME280;58975;51.978;8.472;2022-08-21T11:56:05;100318.47;;;24.64;66.24
4858;BME280;58975;51.978;8.472;2022-08-21T12:01:51;100321.00;;;23.42;72.59
4858;BME280;58975;51.978;8.472;2022-08-21T12:06:36;100316.59;;;23.74;73.90
4858;BME280;58975;51.978;8.472;2022-08-21T12:11:47;100319.25;;;24.00;71.32
4858;BME280;58975;51.978;8.472;2022-08-21T12:16:48;100313.38;;;24.30;69.48
4858;BME280;58975;51.978;8.472;2022-08-21T12:22:09;100321.31;;;24.31;67.67
4858;BME280;58975;51.978;8.472;2022-08-21T12:27:29;100304.94;;;24.82;66.80
4858;BME280;58975;51.978;8.472;2022-08-21T12:32:30;100315.63;;;24.46;66.03
4858;BME280;58975;51.978;8.472;2022-08-21T12:42:28;100309.41;;;24.26;61.97
4858;BME280;58975;51.978;8.472;2022-08-21T12:47:43;100316.41;;;24.53;58.62
4858;BME280;58975;51.978;8.472;2022-08-21T12:52:51;100305.22;;;24.30;56.12
4858;BME280;58975;51.978;8.472;2022-08-21T12:57:50;100303.09;;;24.32;58.62
4858;BME280;58975;51.978;8.472;2022-08-21T13:02:48;100311.91;;;24.34;57.48
4858;BME280;58975;51.978;8.472;2022-08-21T13:07:47;100287.03;;;24.68;55.79
4858;BME280;58975;51.978;8.472;2022-08-21T13:12:44;100303.50;;;24.35;56.17
4858;BME280;58975;51.978;8.472;2022-08-21T13:17:50;100299.63;;;23.72;58.23
4858;BME280;58975;51.978;8.472;2022-08-21T13:22:47;100293.09;;;24.13;58.81
4858;BME280;58975;51.978;8.472;2022-08-21T13:28:16;100288.69;;;24.69;61.74
4858;BME280;58975;51.978;8.472;2022-08-21T13:33:14;100292.53;;;24.55;57.62
4858;BME280;58975;51.978;8.472;2022-08-21T13:38:11;100291.59;;;24.74;61.65
4858;BME280;58975;51.978;8.472;2022-08-21T13:43:16;100287.75;;;24.82;54.66
4858;BME280;58975;51.978;8.472;2022-08-21T13:48:16;100293.69;;;24.85;54.10
4858;BME280;58975;51.978;8.472;2022-08-21T13:53:22;100292.00;;;25.16;53.62
4858;BME280;58975;51.978;8.472;2022-08-21T13:58:32;100284.50;;;24.73;53.00
4858;BME280;58975;51.978;8.472;2022-08-21T14:03:35;100300.38;;;24.76;56.19
4858;BME280;58975;51.978;8.472;2022-08-21T14:08:38;100289.41;;;24.96;55.48
4858;BME280;58975;51.978;8.472;2022-08-21T14:13:58;100290.97;;;24.72;54.91
4858;BME280;58975;51.978;8.472;2022-08-21T14:29:21;100288.47;;;24.26;55.85
4858;BME280;58975;51.978;8.472;2022-08-21T14:34:18;100288.56;;;24.51;55.87
4858;BME280;58975;51.978;8.472;2022-08-21T14:39:15;100282.19;;;24.70;52.59
4858;BME280;58975;51.978;8.472;2022-08-21T14:44:12;100295.88;;;24.57;50.90
4858;BME280;58975;51.978;8.472;2022-08-21T14:49:09;100295.50;;;24.47;49.43
4858;BME280;58975;51.978;8.472;2022-08-21T14:54:06;100300.72;;;24.48;50.65
4858;BME280;58975;51.978;8.472;2022-08-21T14:59:05;100302.00;;;24.97;51.20
4858;BME280;58975;51.978;8.472;2022-08-21T15:04:02;100296.19;;;24.80;50.04
4858;BME280;58975;51.978;8.472;2022-08-21T15:08:58;100294.34;;;25.06;50.64
4858;BME280;58975;51.978;8.472;2022-08-21T15:13:57;100296.50;;;24.59;49.44
4858;BME280;58975;51.978;8.472;2022-08-21T15:18:58;100296.81;;;24.38;50.01
4858;BME280;58975;51.978;8.472;2022-08-21T15:23:55;100302.16;;;23.87;52.36
4858;BME280;58975;51.978;8.472;2022-08-21T15:28:51;100296.91;;;23.98;53.28
4858;BME280;58975;51.978;8.472;2022-08-21T15:33:48;100302.81;;;24.46;53.27
4858;BME280;58975;51.978;8.472;2022-08-21T15:38:44;100301.66;;;25.12;49.86
4858;BME280;58975;51.978;8.472;2022-08-21T15:43:46;100286.84;;;26.00;46.78
4858;BME280;58975;51.978;8.472;2022-08-21T15:48:44;100283.19;;;24.89;48.97
4858;BME280;58975;51.978;8.472;2022-08-21T15:53:42;100287.81;;;24.75;50.09
4858;BME280;58975;51.978;8.472;2022-08-21T15:58:39;100278.22;;;24.73;48.93
4858;BME280;58975;51.978;8.472;2022-08-21T16:03:35;100279.47;;;24.70;49.24
4858;BME280;58975;51.978;8.472;2022-08-21T16:08:32;100283.41;;;24.36;50.02
4858;BME280;58975;51.978;8.472;2022-08-21T16:13:35;100278.47;;;24.00;51.19
4858;BME280;58975;51.978;8.472;2022-08-21T16:18:32;100289.44;;;24.45;50.29
4858;BME280;58975;51.978;8.472;2022-08-21T16:23:29;100283.94;;;23.87;51.79
4858;BME280;58975;51.978;8.472;2022-08-21T16:28:25;100284.59;;;23.83;50.82
4858;BME280;58975;51.978;8.472;2022-08-21T16:33:37;100277.88;;;23.85;52.28
4858;BME280;58975;51.978;8.472;2022-08-21T16:38:36;100274.47;;;24.23;50.51
4858;BME280;58975;51.978;8.472;2022-08-21T16:43:34;100278.69;;;23.92;50.72
4858;BME280;58975;51.978;8.472;2022-08-21T16:48:30;100276.84;;;23.73;51.76
4858;BME280;58975;51.978;8.472;2022-08-21T16:53:27;100277.72;;;23.54;52.59
4858;BME280;58975;51.978;8.472;2022-08-21T16:58:32;100274.78;;;23.62;53.70
4858;BME280;58975;51.978;8.472;2022-08-21T17:03:31;100281.91;;;23.50;53.19
4858;BME280;58975;51.978;8.472;2022-08-21T17:08:29;100278.53;;;23.35;54.06
4858;BME280;58975;51.978;8.472;2022-08-21T17:13:25;100281.66;;;23.19;52.88
4858;BME280;58975;51.978;8.472;2022-08-21T17:18:23;100280.19;;;23.23;52.69
4858;BME280;58975;51.978;8.472;2022-08-21T17:23:20;100275.41;;;23.25;53.76
4858;BME280;58975;51.978;8.472;2022-08-21T17:28:24;100276.44;;;23.24;53.10
4858;BME280;58975;51.978;8.472;2022-08-21T17:33:22;100272.59;;;24.10;52.18
4858;BME280;58975;51.978;8.472;2022-08-21T17:38:20;100279.31;;;23.94;55.71
4858;BME280;58975;51.978;8.472;2022-08-21T17:43:17;100278.09;;;23.64;56.06
4858;BME280;58975;51.978;8.472;2022-08-21T17:48:13;100277.66;;;23.41;59.15
4858;BME280;58975;51.978;8.472;2022-08-21T17:53:10;100277.06;;;23.19;63.42
4858;BME280;58975;51.978;8.472;2022-08-21T17:58:08;100277.66;;;22.95;64.43
4858;BME280;58975;51.978;8.472;2022-08-21T18:03:14;100278.75;;;22.46;89.59
4858;BME280;58975;51.978;8.472;2022-08-21T18:08:12;100285.91;;;21.85;99.36
4858;BME280;58975;51.978;8.472;2022-08-21T18:13:09;100287.72;;;21.44;100.00
4858;BME280;58975;51.978;8.472;2022-08-21T18:18:07;100290.03;;;21.26;96.45
4858;BME280;58975;51.978;8.472;2022-08-21T18:23:03;100283.41;;;20.86;100.00
4858;BME280;58975;51.978;8.472;2022-08-21T18:28:05;100281.94;;;20.33;100.00
4858;BME280;58975;51.978;8.472;2022-08-21T18:33:02;100288.47;;;19.94;100.00
4858;BME280;58975;51.978;8.472;2022-08-21T18:37:59;100278.22;;;19.75;100.00
4858;BME280;58975;51.978;8.472;2022-08-21T18:42:55;100285.97;;;19.41;100.00
4858;BME280;58975;51.978;8.472;2022-08-21T18:47:54;100298.28;;;19.20;100.00
4858;BME280;58975;51.978;8.472;2022-08-21T18:52:51;100291.03;;;18.98;100.00
4858;BME280;58975;51.978;8.472;2022-08-21T18:58:07;100302.25;;;18.87;100.00
4858;BME280;58975;51.978;8.472;2022-08-21T19:03:04;100302.00;;;18.74;100.00
4858;BME280;58975;51.978;8.472;2022-08-21T19:08:03;100312.53;;;18.61;100.00
4858;BME280;58975;51.978;8.472;2022-08-21T19:12:59;100309.88;;;18.44;100.00
4858;BME280;58975;51.978;8.472;2022-08-21T19:17:57;100311.63;;;18.29;100.00
4858;BME280;58975;51.978;8.472;2022-08-21T19:22:54;100313.69;;;18.19;100.00
4858;BME280;58975;51.978;8.472;2022-08-21T19:27:51;100314.59;;;18.04;100.00
4858;BME280;58975;51.978;8.472;2022-08-21T19:32:51;100311.28;;;17.77;100.00
4858;BME280;58975;51.978;8.472;2022-08-21T19:37:47;100301.56;;;17.52;100.00
4858;BME280;58975;51.978;8.472;2022-08-21T19:42:44;100304.28;;;17.28;100.00
4858;BME280;58975;51.978;8.472;2022-08-21T19:47:45;100306.28;;;17.26;100.00
4858;BME280;58975;51.978;8.472;2022-08-21T19:52:42;100303.44;;;17.27;100.00
4858;BME280;58975;51.978;8.472;2022-08-21T19:57:46;100290.13;;;17.18;100.00
4858;BME280;58975;51.978;8.472;2022-08-21T20:02:43;100292.00;;;17.01;100.00
4858;BME280;58975;51.978;8.472;2022-08-21T20:07:44;100296.66;;;16.91;100.00
4858;BME280;58975;51.978;8.472;2022-08-21T20:13:00;100297.66;;;16.66;100.00
4858;BME280;58975;51.978;8.472;2022-08-21T20:17:58;100292.84;;;16.43;100.00
4858;BME280;58975;51.978;8.472;2022-08-21T20:22:54;100284.97;;;16.42;100.00
4858;BME280;58975;51.978;8.472;2022-08-21T20:27:51;100290.50;;;16.48;100.00
4858;BME280;58975;51.978;8.472;2022-08-21T20:32:48;100291.53;;;16.55;100.00
4858;BME280;58975;51.978;8.472;2022-08-21T20:37:44;100276.72;;;16.43;100.00
4858;BME280;58975;51.978;8.472;2022-08-21T20:42:54;100270.63;;;16.25;100.00
4858;BME280;58975;51.978;8.472;2022-08-21T20:47:57;100272.44;;;16.17;100.00
4858;BME280;58975;51.978;8.472;2022-08-21T20:53:02;100277.16;;;16.15;100.00
4858;BME280;58975;51.978;8.472;2022-08-21T20:58:05;100284.50;;;16.13;100.00
4858;BME280;58975;51.978;8.472;2022-08-21T21:03:11;100285.34;;;16.13;100.00
4858;BME280;58975;51.978;8.472;2022-08-21T21:08:20;100280.13;;;16.12;100.00
4858;BME280;58975;51.978;8.472;2022-08-21T21:13:45;100283.28;;;15.99;100.00
4858;BME280;58975;51.978;8.472;2022-08-21T21:18:46;100282.25;;;16.00;100.00
4858;BME280;58975;51.978;8.472;2022-08-21T21:23:53;100284.28;;;15.98;100.00
4858;BME280;58975;51.978;8.472;2022-08-21T21:28:58;100286.56;;;15.85;100.00
4858;BME280;58975;51.978;8.472;2022-08-21T21:33:56;100285.16;;;15.73;100.00
4858;BME280;58975;51.978;8.472;2022-08-21T21:39:02;100276.84;;;15.58;100.00
4858;BME280;58975;51.978;8.472;2022-08-21T21:44:25;100278.63;;;15.49;100.00
4858;BME280;58975;51.978;8.472;2022-08-21T21:54:57;100276.31;;;15.11;100.00
4858;BME280;58975;51.978;8.472;2022-08-21T22:10:57;100275.09;;;14.88;100.00
4858;BME280;58975;51.978;8.472;2022-08-21T22:16:05;100288.50;;;14.88;100.00
4858;BME280;58975;51.978;8.472;2022-08-21T22:21:09;100288.66;;;15.04;100.00
4858;BME280;58975;51.978;8.472;2022-08-21T22:26:11;100293.13;;;15.21;100.00
4858;BME280;58975;51.978;8.472;2022-08-21T22:31:22;100301.16;;;15.39;100.00
4858;BME280;58975;51.978;8.472;2022-08-21T22:36:19;100290.59;;;15.55;100.00
4858;BME280;58975;51.978;8.472;2022-08-21T22:41:25;100296.34;;;15.94;100.00
4858;BME280;58975;51.978;8.472;2022-08-21T22:46:27;100305.56;;;16.25;100.00
4858;BME280;58975;51.978;8.472;2022-08-21T22:51:34;100308.97;;;16.43;100.00
4858;BME280;58975;51.978;8.472;2022-08-21T22:56:45;100320.91;;;16.41;100.00
4858;BME280;58975;51.978;8.472;2022-08-21T23:07:06;100315.06;;;16.12;100.00
4858;BME280;58975;51.978;8.472;2022-08-21T23:12:11;100308.41;;;15.90;100.00
4858;BME280;58975;51.978;8.472;2022-08-21T23:17:37;100299.94;;;15.77;100.00
4858;BME280;58975;51.978;8.472;2022-08-21T23:23:20;100304.25;;;15.70;100.00
4858;BME280;58975;51.978;8.472;2022-08-21T23:44:22;100304.91;;;15.64;100.00
4858;BME280;58975;51.978;8.472;2022-08-21T23:49:47;100309.00;;;15.76;100.00
